Decoded Metar for CYOO ( in ) (IATA:) | Meteo·Mobile Aviation Weather
aviador You're here:

CYOO Decoded Metar

in
Report Time2019-03-19 19:22:00
UTC Time2019-03-19 19:29:10
Flight Rules vfr VFR
Wind220° at 04 kt
W.Decomp.*RWY 22: 4.0 kt HW 0 kt LCW
RWY 30: 0.7 kt HW 3.9 kt LCW
W.Rank220° ranks 16
Current wind is below 220° avg. (7.9)
Visibility9999 m
Phenomena:N/A
Clouds:Few 020 Hf
Overcast 037 Hf
Expected CloudBase > 1,600 ft AGL from Temp-Dew spread
Ceiling3,700 ft
Temp03°C
Dew Point-1°C (75% RH)
AAT-0.6°C
QNH1028 hPa
Raw Report
SPECI CYOO 191922Z AUTO 22004KT 160V250 9SM FEW020 OVC037 03/M01 A3037 RMK SLP291=

Extra information for CYOO:More info

Social comments